Time;durP1;ratioP1;P1;durP2;ratioP2;P2;SDS_P1;SDS_P2;PMS_P1;PMS_P2;Temp;Humidity;BMP_temperature;BMP_pressure;BME280_temperature;BME280_humidity;BME280_pressure;Samples;Min_cycle;Max_cycle;Signal;HPM_P1;HPM_P2
2021/04/14 00:01:34;;;;;;;3.30;3.10;;;4.30;95.90;;;;;;5060363;28;20222;-73
2021/04/14 00:04:02;;;;;;;3.30;3.10;;;4.30;95.40;;;;;;5058785;28;20221;-73
2021/04/14 00:06:28;;;;;;;3.08;2.97;;;4.30;95.50;;;;;;5059971;28;20207;-73
2021/04/14 00:08:55;;;;;;;3.60;3.28;;;4.40;95.50;;;;;;5059233;28;20214;-73
2021/04/14 00:11:22;;;;;;;3.40;3.20;;;4.40;95.10;;;;;;5061375;28;20229;-73
2021/04/14 00:13:48;;;;;;;3.17;3.08;;;4.40;95.30;;;;;;5063054;28;20233;-73
2021/04/14 00:16:17;;;;;;;3.40;3.28;;;4.40;95.70;;;;;;5067740;28;20201;-73
2021/04/14 00:18:44;;;;;;;3.42;3.22;;;4.30;95.90;;;;;;5061970;28;20215;-73
2021/04/14 00:21:12;;;;;;;3.15;3.05;;;4.30;96.30;;;;;;5065647;28;20635;-73
2021/04/14 00:23:39;;;;;;;3.00;2.90;;;4.20;96.00;;;;;;5067285;28;20573;-73
2021/04/14 00:26:06;;;;;;;3.03;2.90;;;4.20;95.80;;;;;;5063934;28;20206;-73
2021/04/14 00:28:34;;;;;;;3.30;3.20;;;4.20;95.80;;;;;;5062051;28;20269;-73
2021/04/14 00:33:47;;;;;;;3.15;2.95;;;4.20;96.50;;;;;;5077773;27;20228;-65
2021/04/14 00:36:14;;;;;;;3.28;3.17;;;4.10;96.70;;;;;;5084174;28;20645;-65
2021/04/14 00:38:41;;;;;;;3.10;3.00;;;4.10;96.70;;;;;;5081952;28;20271;-65
2021/04/14 00:41:11;;;;;;;3.10;3.00;;;4.00;96.90;;;;;;5079952;28;20243;-65
2021/04/14 00:43:38;;;;;;;3.10;2.90;;;3.90;97.10;;;;;;5079069;28;20221;-65
2021/04/14 00:46:05;;;;;;;3.50;3.30;;;3.90;97.00;;;;;;5076335;28;20193;-65
2021/04/14 00:48:32;;;;;;;3.17;2.97;;;3.80;97.00;;;;;;5071301;28;20225;-65
2021/04/14 00:51:00;;;;;;;3.28;3.03;;;3.80;97.10;;;;;;5069112;28;20201;-65
2021/04/14 00:53:27;;;;;;;3.17;2.97;;;3.90;97.20;;;;;;5071646;28;20229;-65
2021/04/14 00:55:54;;;;;;;3.25;3.05;;;3.90;97.20;;;;;;5078735;28;20193;-65
2021/04/14 00:58:21;;;;;;;3.70;3.50;;;3.80;97.20;;;;;;5082067;28;20225;-65
2021/04/14 01:00:50;;;;;;;3.20;3.10;;;3.80;97.20;;;;;;5071337;28;20210;-65
2021/04/14 01:03:21;;;;;;;3.60;3.40;;;3.80;97.50;;;;;;5079533;28;20213;-65
2021/04/14 01:05:49;;;;;;;3.25;3.05;;;3.80;97.70;;;;;;5071653;28;21191;-65
2021/04/14 01:08:16;;;;;;;3.35;3.20;;;3.80;97.70;;;;;;5077767;28;20195;-65
2021/04/14 01:10:43;;;;;;;3.20;3.00;;;3.80;97.50;;;;;;5069946;28;20603;-65
2021/04/14 01:13:13;;;;;;;2.92;2.83;;;3.70;97.60;;;;;;5074285;28;20230;-65
2021/04/14 01:15:41;;;;;;;3.08;2.97;;;3.70;97.80;;;;;;5070711;28;20220;-65
2021/04/14 01:18:10;;;;;;;3.40;3.30;;;3.70;97.70;;;;;;5074919;28;20205;-66
2021/04/14 01:20:37;;;;;;;3.42;3.22;;;3.70;97.70;;;;;;5070660;28;20189;-65
2021/04/14 01:23:06;;;;;;;2.97;2.88;;;3.70;97.50;;;;;;5084233;28;20209;-65
2021/04/14 01:25:35;;;;;;;3.50;3.40;;;3.60;97.80;;;;;;5071886;28;20226;-66
2021/04/14 01:28:03;;;;;;;3.28;3.17;;;3.60;98.10;;;;;;5060510;28;20728;-65
2021/04/14 01:30:30;;;;;;;3.20;3.10;;;3.60;98.30;;;;;;5075539;28;20290;-65
2021/04/14 01:32:57;;;;;;;3.22;3.13;;;3.60;98.40;;;;;;5070537;28;20221;-65
2021/04/14 01:35:27;;;;;;;3.80;3.60;;;3.60;98.60;;;;;;5071049;28;20221;-65
2021/04/14 01:37:54;;;;;;;3.35;3.15;;;3.60;98.90;;;;;;5068873;28;20197;-65
2021/04/14 01:40:24;;;;;;;3.55;3.40;;;3.60;98.60;;;;;;5077937;28;20487;-65
2021/04/14 01:42:51;;;;;;;3.30;3.10;;;3.60;98.70;;;;;;5083187;28;20217;-65
2021/04/14 01:45:20;;;;;;;3.60;3.40;;;3.60;98.60;;;;;;5072914;28;20221;-64
2021/04/14 01:47:47;;;;;;;3.72;3.53;;;3.60;98.20;;;;;;5075848;28;20198;-65
2021/04/14 01:50:14;;;;;;;3.75;3.55;;;3.60;98.50;;;;;;5064514;28;20218;-65
2021/04/14 01:52:40;;;;;;;3.88;3.67;;;3.50;98.40;;;;;;5077558;28;20221;-64
2021/04/14 01:55:09;;;;;;;3.58;3.38;;;3.50;98.20;;;;;;5084603;28;20240;-64
2021/04/14 01:57:37;;;;;;;4.10;3.70;;;3.50;98.10;;;;;;5071835;28;20194;-64
2021/04/14 02:00:12;;;;;;;3.60;3.40;;;3.50;98.00;;;;;;5072956;28;20639;-65
2021/04/14 02:02:39;;;;;;;4.03;3.72;;;3.50;98.10;;;;;;5078842;28;20210;-65
2021/04/14 02:05:07;;;;;;;3.35;3.25;;;3.50;97.80;;;;;;5071288;28;21515;-65
2021/04/14 02:07:34;;;;;;;4.20;3.92;;;3.50;98.10;;;;;;5082201;28;20203;-65
2021/04/14 02:10:00;;;;;;;3.97;3.78;;;3.50;98.30;;;;;;5064922;28;20237;-65
2021/04/14 02:12:27;;;;;;;4.03;3.83;;;3.50;98.20;;;;;;5078175;28;20243;-65
2021/04/14 02:14:54;;;;;;;3.83;3.63;;;3.50;98.10;;;;;;5064824;28;20221;-65
2021/04/14 02:17:21;;;;;;;3.97;3.78;;;3.40;98.80;;;;;;5075413;28;20571;-65
2021/04/14 02:19:47;;;;;;;3.90;3.70;;;3.30;98.80;;;;;;5079756;28;20763;-65
2021/04/14 02:22:14;;;;;;;3.97;3.78;;;3.10;99.00;;;;;;5076106;28;20214;-65
2021/04/14 02:24:41;;;;;;;3.50;3.30;;;3.20;99.50;;;;;;5075822;28;20638;-65
2021/04/14 02:27:08;;;;;;;4.00;3.80;;;3.20;99.70;;;;;;5081646;28;20202;-65
2021/04/14 02:29:34;;;;;;;3.35;3.17;;;3.20;99.30;;;;;;5073211;28;20225;-65
2021/04/14 02:32:02;;;;;;;3.60;3.40;;;3.20;99.20;;;;;;5077767;28;20227;-65
2021/04/14 02:34:28;;;;;;;3.88;3.67;;;3.20;99.20;;;;;;5077243;28;20244;-65
2021/04/14 02:36:55;;;;;;;3.10;3.00;;;3.20;99.40;;;;;;5077651;28;20199;-65
2021/04/14 02:39:22;;;;;;;3.88;3.67;;;3.20;99.30;;;;;;5068149;28;20217;-65
2021/04/14 02:41:48;;;;;;;3.30;3.10;;;3.20;99.20;;;;;;5081083;28;20613;-65
2021/04/14 02:44:15;;;;;;;3.70;3.50;;;3.20;99.30;;;;;;5082924;28;20225;-65
2021/04/14 02:46:42;;;;;;;3.33;3.13;;;3.20;99.70;;;;;;5076414;28;20194;-65
2021/04/14 02:49:09;;;;;;;3.45;3.30;;;3.20;99.90;;;;;;5071534;28;20222;-64
2021/04/14 02:51:36;;;;;;;3.78;3.58;;;3.20;99.90;;;;;;5081271;28;20214;-65
2021/04/14 02:54:02;;;;;;;3.80;3.60;;;3.20;99.90;;;;;;5081306;28;20228;-65
2021/04/14 02:56:29;;;;;;;3.40;3.20;;;3.20;99.90;;;;;;5080516;28;20197;-65
2021/04/14 02:58:56;;;;;;;3.85;3.58;;;3.20;99.90;;;;;;5079594;28;20586;-65
2021/04/14 03:01:22;;;;;;;4.18;3.97;;;3.20;99.90;;;;;;5075434;28;20640;-65
2021/04/14 03:03:49;;;;;;;3.90;3.70;;;3.10;99.90;;;;;;5078301;28;20218;-65
2021/04/14 03:06:16;;;;;;;4.13;3.92;;;3.10;99.90;;;;;;5083529;28;20200;-65
2021/04/14 03:08:43;;;;;;;4.80;4.50;;;3.10;99.80;;;;;;5080950;28;20189;-65
2021/04/14 03:11:09;;;;;;;4.47;4.28;;;3.00;99.70;;;;;;5083562;28;20197;-65
2021/04/14 03:13:36;;;;;;;4.55;4.30;;;3.00;99.60;;;;;;5081601;28;20217;-65
2021/04/14 03:16:03;;;;;;;4.45;4.15;;;3.10;99.60;;;;;;5073909;28;20456;-65
2021/04/14 03:18:29;;;;;;;4.85;4.60;;;3.10;99.50;;;;;;5078045;28;20226;-65
2021/04/14 03:20:56;;;;;;;4.25;3.97;;;3.10;99.40;;;;;;5082591;28;20201;-65
2021/04/14 03:23:23;;;;;;;3.92;3.72;;;3.10;99.40;;;;;;5072615;28;20205;-64
2021/04/14 03:25:50;;;;;;;4.32;4.13;;;3.10;99.30;;;;;;5079897;28;20225;-64
2021/04/14 03:28:17;;;;;;;4.43;4.22;;;3.10;99.70;;;;;;5075185;28;20609;-65
2021/04/14 03:30:43;;;;;;;4.00;3.80;;;3.00;99.90;;;;;;5072392;28;20226;-65
2021/04/14 03:33:11;;;;;;;4.10;3.90;;;3.00;99.90;;;;;;5085062;28;20228;-64
2021/04/14 03:35:37;;;;;;;4.45;4.07;;;2.90;99.90;;;;;;5069615;28;20703;-64
2021/04/14 03:38:05;;;;;;;4.07;3.88;;;3.00;99.50;;;;;;5078798;28;20262;-65
2021/04/14 03:40:33;;;;;;;4.25;4.05;;;3.00;99.80;;;;;;5069746;28;20214;-65
2021/04/14 03:43:00;;;;;;;4.60;4.30;;;3.00;99.70;;;;;;5086009;28;20218;-65
2021/04/14 03:45:31;;;;;;;3.78;3.58;;;3.00;99.70;;;;;;5063056;28;20611;-64
2021/04/14 03:47:58;;;;;;;4.30;4.10;;;3.00;99.70;;;;;;5072431;28;20193;-65
2021/04/14 03:50:26;;;;;;;4.30;4.10;;;3.00;99.70;;;;;;5069605;28;20234;-65
2021/04/14 03:52:53;;;;;;;3.78;3.58;;;3.00;99.70;;;;;;5078979;28;20217;-65
2021/04/14 03:55:22;;;;;;;3.88;3.67;;;3.00;99.90;;;;;;5067842;28;20244;-65
2021/04/14 03:57:50;;;;;;;3.65;3.45;;;3.00;99.90;;;;;;5077411;28;20683;-65
2021/04/14 04:00:17;;;;;;;3.85;3.65;;;3.00;99.90;;;;;;5066131;28;20593;-65
2021/04/14 04:02:43;;;;;;;3.83;3.63;;;3.00;99.90;;;;;;5079212;28;20213;-65
2021/04/14 04:05:11;;;;;;;3.15;3.05;;;3.00;99.90;;;;;;5070266;28;20227;-65
2021/04/14 04:07:38;;;;;;;3.83;3.63;;;3.00;99.90;;;;;;5067509;28;20206;-64
2021/04/14 04:10:07;;;;;;;3.90;3.70;;;2.90;99.90;;;;;;5065140;28;20236;-65
2021/04/14 04:12:34;;;;;;;4.03;3.83;;;2.90;99.90;;;;;;5091442;28;20633;-65
2021/04/14 04:15:03;;;;;;;4.10;3.80;;;2.90;99.90;;;;;;5085973;28;20226;-65
2021/04/14 04:17:29;;;;;;;3.80;3.60;;;2.90;99.90;;;;;;5080733;28;20198;-65
2021/04/14 04:19:56;;;;;;;4.45;4.15;;;3.00;99.90;;;;;;5084007;28;20215;-65
2021/04/14 04:22:23;;;;;;;4.10;3.90;;;3.00;99.90;;;;;;5074305;28;20210;-64
2021/04/14 04:24:50;;;;;;;4.30;4.00;;;2.90;99.90;;;;;;5080131;28;20225;-66
2021/04/14 04:27:18;;;;;;;4.05;3.75;;;2.90;99.90;;;;;;5071331;28;20229;-65
2021/04/14 04:29:44;;;;;;;4.00;3.80;;;2.80;99.90;;;;;;5075420;28;20214;-65
2021/04/14 04:32:12;;;;;;;4.43;4.22;;;2.90;99.90;;;;;;5078387;28;20275;-64
2021/04/14 04:34:39;;;;;;;4.30;4.10;;;2.90;99.90;;;;;;5068007;28;20221;-65
2021/04/14 04:37:05;;;;;;;4.28;4.07;;;2.80;99.90;;;;;;5080216;28;20198;-65
2021/04/14 04:39:32;;;;;;;3.95;3.75;;;2.70;99.90;;;;;;5076287;28;20226;-64
2021/04/14 04:41:59;;;;;;;4.20;4.00;;;2.60;99.90;;;;;;5080563;28;20218;-64
2021/04/14 04:44:25;;;;;;;3.70;3.50;;;2.60;99.90;;;;;;5071366;28;20221;-64
2021/04/14 04:46:52;;;;;;;3.80;3.60;;;2.70;99.90;;;;;;5067514;28;20317;-65
2021/04/14 04:49:19;;;;;;;4.07;3.88;;;2.70;99.90;;;;;;5080128;28;20253;-65
2021/04/14 04:51:46;;;;;;;4.32;4.03;;;2.80;99.90;;;;;;5076438;28;20750;-65
2021/04/14 04:54:12;;;;;;;4.43;4.15;;;2.80;99.90;;;;;;5065905;28;20273;-64
2021/04/14 04:56:39;;;;;;;4.43;4.22;;;2.70;99.90;;;;;;5071156;28;20672;-65
2021/04/14 04:59:06;;;;;;;4.22;4.03;;;2.70;99.90;;;;;;5061753;28;20232;-65
2021/04/14 05:01:33;;;;;;;5.18;4.88;;;2.70;99.90;;;;;;5064120;28;20237;-65
2021/04/14 05:03:59;;;;;;;4.60;4.40;;;2.60;99.90;;;;;;5074685;28;20214;-64
2021/04/14 05:06:27;;;;;;;4.60;4.30;;;2.70;99.90;;;;;;5062351;28;20224;-65
2021/04/14 05:08:53;;;;;;;4.57;4.28;;;2.70;99.90;;;;;;5067613;28;20197;-65
2021/04/14 05:11:20;;;;;;;4.75;4.35;;;2.70;99.90;;;;;;5071932;28;20587;-65
2021/04/14 05:13:49;;;;;;;5.00;4.70;;;2.90;99.90;;;;;;5073512;28;20275;-65
2021/04/14 05:16:15;;;;;;;5.40;5.10;;;3.10;99.90;;;;;;5076995;28;20205;-65
2021/04/14 05:18:42;;;;;;;5.45;5.05;;;3.50;99.90;;;;;;5061017;28;20265;-64
2021/04/14 05:21:09;;;;;;;5.32;4.93;;;3.80;99.90;;;;;;5062112;28;20226;-65
2021/04/14 05:23:37;;;;;;;5.20;4.90;;;4.50;99.90;;;;;;5075320;28;20238;-65
2021/04/14 05:26:04;;;;;;;4.88;4.57;;;5.00;99.90;;;;;;5077363;28;20213;-65
2021/04/14 05:28:30;;;;;;;4.82;4.43;;;5.60;99.90;;;;;;5075692;28;20263;-65
2021/04/14 05:30:57;;;;;;;4.53;4.22;;;5.80;99.90;;;;;;5057658;28;20276;-64
2021/04/14 05:33:25;;;;;;;5.50;5.20;;;6.20;99.60;;;;;;5056998;28;20231;-65
2021/04/14 05:35:52;;;;;;;5.45;4.95;;;6.20;98.70;;;;;;5060314;28;20319;-65
2021/04/14 05:38:19;;;;;;;5.38;4.88;;;6.00;98.10;;;;;;5062195;28;20190;-65
2021/04/14 05:40:46;;;;;;;5.25;4.80;;;5.80;98.10;;;;;;5055593;28;20584;-65
2021/04/14 05:43:17;;;;;;;4.93;4.63;;;5.70;97.80;;;;;;5059497;28;20229;-65
2021/04/14 05:45:46;;;;;;;5.22;4.93;;;5.70;98.50;;;;;;5050042;28;20222;-66
2021/04/14 05:48:14;;;;;;;7.65;6.95;;;5.70;98.40;;;;;;5051593;28;20203;-65
2021/04/14 05:50:41;;;;;;;5.78;5.30;;;5.60;99.90;;;;;;5054676;28;20219;-66
2021/04/14 05:53:08;;;;;;;5.95;5.50;;;5.60;99.90;;;;;;5054897;28;20272;-65
2021/04/14 05:55:34;;;;;;;5.70;5.25;;;5.60;99.90;;;;;;5046170;28;20241;-65
2021/04/14 05:58:02;;;;;;;6.10;5.60;;;5.60;99.90;;;;;;5057687;28;20214;-65
2021/04/14 06:00:28;;;;;;;5.40;5.00;;;5.90;99.90;;;;;;5049951;28;20234;-65
2021/04/14 06:02:55;;;;;;;5.55;5.15;;;6.00;99.90;;;;;;5045897;28;20272;-65
2021/04/14 06:05:23;;;;;;;6.10;4.88;;;6.10;99.90;;;;;;5045679;28;20222;-65
2021/04/14 06:07:50;;;;;;;6.43;5.82;;;6.30;99.90;;;;;;5055914;28;20197;-66
2021/04/14 06:10:20;;;;;;;5.15;4.78;;;6.60;99.90;;;;;;5060448;28;20222;-66
2021/04/14 06:12:47;;;;;;;6.00;5.32;;;6.60;99.90;;;;;;5049372;28;20283;-66
2021/04/14 06:15:17;;;;;;;7.07;5.10;;;6.40;99.90;;;;;;5063542;28;20987;-66
2021/04/14 06:17:44;;;;;;;5.53;5.13;;;6.30;99.90;;;;;;5052488;28;20197;-67
2021/04/14 06:20:12;;;;;;;5.60;5.10;;;6.30;99.90;;;;;;5065802;28;20229;-68
2021/04/14 06:22:39;;;;;;;6.15;5.20;;;6.30;99.90;;;;;;5054014;28;20241;-66
2021/04/14 06:25:06;;;;;;;5.03;4.70;;;6.20;99.90;;;;;;5053633;28;20218;-67
2021/04/14 06:27:37;;;;;;;5.18;4.78;;;6.30;99.90;;;;;;5058283;28;20203;-67
2021/04/14 06:30:05;;;;;;;5.82;5.30;;;6.40;99.90;;;;;;5059745;28;20712;-66
2021/04/14 06:32:33;;;;;;;5.72;5.10;;;6.50;99.90;;;;;;5074116;22;20275;-76
2021/04/14 06:35:00;;;;;;;5.10;4.70;;;6.60;99.90;;;;;;5052381;28;20233;-76
2021/04/14 06:37:26;;;;;;;5.47;4.97;;;6.80;99.90;;;;;;5052854;28;20198;-75
2021/04/14 06:40:12;;;;;;;4.80;4.50;;;7.10;99.90;;;;;;5060026;28;20224;-76
2021/04/14 06:42:50;;;;;;;4.82;4.53;;;7.40;99.90;;;;;;5061753;28;20441;-76
2021/04/14 06:45:21;;;;;;;5.35;4.95;;;7.70;99.90;;;;;;5054903;28;20762;-76
2021/04/14 06:48:17;;;;;;;4.93;4.60;;;7.90;99.00;;;;;;5058724;28;20195;-76
2021/04/14 06:50:49;;;;;;;4.93;4.63;;;8.30;98.00;;;;;;5053729;28;20230;-76
2021/04/14 06:53:38;;;;;;;5.00;4.63;;;8.30;96.90;;;;;;5061700;28;20234;-75
2021/04/14 06:56:09;;;;;;;7.00;4.63;;;8.30;96.60;;;;;;5056228;28;20233;-76
2021/04/14 06:58:40;;;;;;;5.10;4.80;;;8.30;96.70;;;;;;5054583;28;20268;-76
2021/04/14 07:01:10;;;;;;;4.78;4.38;;;8.40;97.20;;;;;;5059974;28;20248;-76
2021/04/14 07:03:46;;;;;;;6.60;4.93;;;8.60;97.10;;;;;;5067483;28;20207;-76
2021/04/14 07:06:17;;;;;;;4.82;4.50;;;8.80;97.40;;;;;;5056000;28;20790;-75
2021/04/14 07:09:05;;;;;;;5.35;4.85;;;9.00;96.20;;;;;;5060927;28;20566;-76
2021/04/14 07:11:32;;;;;;;4.78;4.38;;;9.10;97.00;;;;;;5056967;28;20222;-74
2021/04/14 07:13:59;;;;;;;4.28;3.97;;;9.20;96.90;;;;;;5056966;28;20253;-75
2021/04/14 07:16:58;;;;;;;4.32;4.03;;;9.40;96.30;;;;;;5058087;28;20255;-74
2021/04/14 07:19:40;;;;;;;4.88;4.57;;;9.60;94.80;;;;;;5040705;28;20217;-76
2021/04/14 07:22:15;;;;;;;5.05;4.65;;;9.60;93.60;;;;;;5059527;28;20222;-76
2021/04/14 07:24:49;;;;;;;5.68;4.10;;;9.40;93.70;;;;;;5053581;28;20226;-75
2021/04/14 07:27:27;;;;;;;4.28;3.97;;;9.50;93.40;;;;;;5055742;28;20198;-75
2021/04/14 07:30:02;;;;;;;4.45;4.07;;;9.70;94.20;;;;;;5059551;28;20214;-76
2021/04/14 07:32:36;;;;;;;3.83;3.53;;;9.90;93.70;;;;;;5058389;28;20225;-73
2021/04/14 07:35:13;;;;;;;4.85;4.45;;;10.10;92.60;;;;;;5057949;28;20584;-75
2021/04/14 07:37:53;;;;;;;4.32;4.03;;;10.20;93.70;;;;;;5053846;28;20194;-75
2021/04/14 07:40:25;;;;;;;4.30;3.90;;;10.30;92.50;;;;;;5055462;28;20229;-75
2021/04/14 07:43:00;;;;;;;5.13;4.72;;;10.00;91.70;;;;;;5056173;28;20210;-75
2021/04/14 07:45:31;;;;;;;4.18;3.90;;;9.80;91.60;;;;;;5056115;28;20214;-75
2021/04/14 07:48:08;;;;;;;4.65;4.35;;;9.50;92.00;;;;;;5053356;28;20199;-74
2021/04/14 07:50:38;;;;;;;4.53;4.22;;;9.50;91.50;;;;;;5051665;28;20669;-75
2021/04/14 07:53:16;;;;;;;4.47;4.18;;;9.50;92.00;;;;;;5052757;28;20226;-76
2021/04/14 07:55:43;;;;;;;4.40;4.10;;;9.60;90.50;;;;;;5056739;28;20226;-75
2021/04/14 07:58:14;;;;;;;4.82;4.25;;;9.60;91.80;;;;;;5054401;28;20705;-75
2021/04/14 08:00:42;;;;;;;5.03;4.53;;;9.70;91.80;;;;;;5056763;28;20233;-75
2021/04/14 08:03:17;;;;;;;4.82;3.95;;;9.50;92.30;;;;;;5054052;28;20226;-75
2021/04/14 08:05:45;;;;;;;5.03;4.65;;;9.70;93.90;;;;;;5056879;28;20218;-77
2021/04/14 08:08:21;;;;;;;4.30;4.00;;;10.00;92.20;;;;;;5055381;28;20233;-75
2021/04/14 08:11:01;;;;;;;6.05;4.03;;;10.00;92.50;;;;;;5055767;28;20219;-76
2021/04/14 08:13:32;;;;;;;5.25;4.85;;;10.40;92.70;;;;;;5054255;28;20222;-75
2021/04/14 08:15:59;;;;;;;4.82;4.43;;;10.70;92.10;;;;;;5055142;28;20218;-76
2021/04/14 08:18:30;;;;;;;4.43;4.05;;;10.60;90.90;;;;;;5053219;28;20207;-77
2021/04/14 08:21:11;;;;;;;4.97;4.57;;;10.60;90.70;;;;;;5055947;28;20218;-75
2021/04/14 08:23:51;;;;;;;5.10;4.70;;;10.60;91.40;;;;;;5053956;28;20206;-76
2021/04/14 08:26:20;;;;;;;6.18;4.15;;;10.50;90.60;;;;;;5054668;28;20245;-74
2021/04/14 08:28:47;;;;;;;4.45;4.15;;;10.60;90.00;;;;;;5053668;28;20216;-76
2021/04/14 08:31:34;;;;;;;4.95;4.47;;;10.50;89.20;;;;;;5052799;28;20222;-76
2021/04/14 08:34:11;;;;;;;4.25;3.95;;;10.40;88.50;;;;;;5059786;28;20359;-76
2021/04/14 08:36:45;;;;;;;4.82;4.22;;;10.50;88.50;;;;;;5058999;28;20547;-76
2021/04/14 08:39:15;;;;;;;4.70;4.28;;;10.60;87.80;;;;;;5052830;28;20469;-76
2021/04/14 08:41:42;;;;;;;4.57;4.18;;;10.60;88.70;;;;;;5053575;28;20225;-76
2021/04/14 08:44:12;;;;;;;4.38;4.07;;;10.50;85.80;;;;;;5057671;28;20527;-76
2021/04/14 08:46:40;;;;;;;3.90;3.60;;;10.60;84.80;;;;;;5056967;28;20225;-76
2021/04/14 08:49:14;;;;;;;4.55;3.78;;;10.80;85.40;;;;;;5054885;28;20677;-75
2021/04/14 08:51:44;;;;;;;4.22;3.92;;;10.90;85.30;;;;;;5052188;28;20279;-76
2021/04/14 08:54:19;;;;;;;4.72;4.28;;;11.10;85.30;;;;;;5055143;28;20510;-76
2021/04/14 08:56:45;;;;;;;3.80;3.50;;;11.20;83.00;;;;;;5056670;28;20276;-74
2021/04/14 08:59:13;;;;;;;3.70;3.50;;;11.30;81.50;;;;;;5059869;28;20198;-76
2021/04/14 09:01:41;;;;;;;4.43;4.13;;;11.10;80.60;;;;;;5055356;28;20214;-76
2021/04/14 09:04:10;;;;;;;3.42;3.22;;;10.90;79.30;;;;;;5056086;28;20729;-76
2021/04/14 09:06:39;;;;;;;3.38;3.17;;;10.80;76.50;;;;;;5055375;28;20222;-76
2021/04/14 09:09:10;;;;;;;3.47;3.28;;;10.90;77.40;;;;;;5058204;28;20790;-75
2021/04/14 09:11:37;;;;;;;3.58;3.22;;;10.90;76.80;;;;;;5052664;28;20688;-76
2021/04/14 09:14:13;;;;;;;3.67;3.40;;;11.00;76.80;;;;;;5055687;28;20432;-76
2021/04/14 09:16:50;;;;;;;2.83;2.70;;;11.10;77.20;;;;;;5057782;28;20228;-74
2021/04/14 09:19:29;;;;;;;3.42;3.22;;;11.20;75.30;;;;;;5053589;28;20229;-76
2021/04/14 09:21:58;;;;;;;3.45;3.25;;;11.30;75.30;;;;;;5054452;28;20233;-76
2021/04/14 09:24:41;;;;;;;3.50;3.25;;;11.40;73.40;;;;;;5056728;28;20224;-75
2021/04/14 09:27:21;;;;;;;3.60;3.30;;;11.50;75.00;;;;;;5057612;28;20229;-75
2021/04/14 09:29:58;;;;;;;3.40;3.20;;;11.80;75.70;;;;;;5053620;28;20199;-76
2021/04/14 09:32:51;;;;;;;3.50;3.30;;;11.60;73.50;;;;;;5053079;28;20225;-76
2021/04/14 09:35:23;;;;;;;3.63;3.42;;;11.60;73.10;;;;;;5055633;28;20244;-76
2021/04/14 09:37:52;;;;;;;3.20;2.80;;;11.60;72.30;;;;;;5061094;28;20289;-75
2021/04/14 09:40:31;;;;;;;4.50;3.30;;;11.70;74.90;;;;;;5051001;28;20558;-75
2021/04/14 09:42:58;;;;;;;3.20;3.00;;;11.90;73.60;;;;;;5054805;28;20219;-76
2021/04/14 09:45:35;;;;;;;3.00;2.80;;;12.10;75.10;;;;;;5053600;28;20627;-76
2021/04/14 09:48:15;;;;;;;3.42;3.17;;;12.20;75.20;;;;;;5053504;28;20612;-75
2021/04/14 09:50:44;;;;;;;3.40;3.20;;;12.30;74.70;;;;;;5053958;28;20221;-75
2021/04/14 09:53:25;;;;;;;3.70;3.40;;;12.30;73.10;;;;;;5056861;28;20250;-75
2021/04/14 09:55:57;;;;;;;3.08;2.88;;;12.00;71.90;;;;;;5056421;28;20637;-75
2021/04/14 09:58:30;;;;;;;3.10;2.90;;;11.90;72.60;;;;;;5054873;28;20191;-75
2021/04/14 10:01:04;;;;;;;2.80;2.60;;;11.70;72.40;;;;;;5056495;28;20225;-76
2021/04/14 10:03:34;;;;;;;3.13;2.92;;;12.00;73.60;;;;;;5053674;28;20224;-77
2021/04/14 10:06:08;;;;;;;3.38;3.17;;;12.10;73.40;;;;;;5056716;28;20226;-76
2021/04/14 10:08:36;;;;;;;3.10;2.90;;;12.10;72.60;;;;;;5054886;28;20198;-75
2021/04/14 10:11:05;;;;;;;3.30;3.00;;;12.10;74.40;;;;;;5059867;28;20863;-75
2021/04/14 10:13:32;;;;;;;3.08;2.88;;;12.20;72.60;;;;;;5057087;28;20589;-73
2021/04/14 10:16:00;;;;;;;3.00;2.80;;;12.00;75.10;;;;;;5059760;28;20586;-76
2021/04/14 10:18:29;;;;;;;3.30;2.90;;;12.10;69.30;;;;;;5063391;28;20206;-75
2021/04/14 10:21:10;;;;;;;3.08;2.88;;;11.80;70.00;;;;;;5061063;28;20882;-76
2021/04/14 10:23:41;;;;;;;2.90;2.70;;;11.80;70.00;;;;;;5062935;28;20245;-75
2021/04/14 10:26:11;;;;;;;3.00;2.80;;;11.70;69.90;;;;;;5060495;28;20484;-75
2021/04/14 10:28:41;;;;;;;2.65;2.55;;;11.90;71.80;;;;;;5058729;28;20195;-75
2021/04/14 10:31:10;;;;;;;3.00;2.80;;;12.40;72.90;;;;;;5061316;28;20303;-76
2021/04/14 10:33:39;;;;;;;2.92;2.67;;;12.40;69.00;;;;;;5061229;28;20278;-76
2021/04/14 10:36:12;;;;;;;2.58;2.38;;;12.40;70.60;;;;;;5057754;28;20218;-76
2021/04/14 10:38:39;;;;;;;4.68;2.60;;;12.50;71.70;;;;;;5057524;28;20205;-75
2021/04/14 10:41:16;;;;;;;2.90;2.65;;;12.70;70.00;;;;;;5057447;28;20648;-76
2021/04/14 10:43:42;;;;;;;3.13;2.92;;;12.90;70.60;;;;;;5057438;28;20218;-76
2021/04/14 10:46:13;;;;;;;2.60;2.40;;;12.80;70.40;;;;;;5060904;28;20759;-76
2021/04/14 10:48:42;;;;;;;2.20;2.10;;;12.60;68.50;;;;;;5057568;28;20201;-75
2021/04/14 10:51:16;;;;;;;2.67;2.58;;;12.70;70.10;;;;;;5065100;28;20225;-76
2021/04/14 10:53:44;;;;;;;3.40;2.40;;;12.70;67.70;;;;;;5058218;28;20657;-76
2021/04/14 10:56:19;;;;;;;2.92;2.70;;;12.70;69.10;;;;;;5052670;28;20231;-76
2021/04/14 10:58:47;;;;;;;2.63;2.42;;;12.50;66.70;;;;;;5055984;28;20212;-76
2021/04/14 11:01:18;;;;;;;4.05;2.47;;;12.70;67.90;;;;;;5053957;28;20222;-76
2021/04/14 11:04:06;;;;;;;2.50;2.40;;;12.50;66.60;;;;;;5062128;28;20202;-76
2021/04/14 11:06:34;;;;;;;3.40;2.72;;;12.30;66.50;;;;;;5064030;28;20218;-76
2021/04/14 11:09:01;;;;;;;3.53;3.15;;;12.20;66.70;;;;;;5061091;28;20221;-76
2021/04/14 11:11:29;;;;;;;3.17;2.88;;;11.90;65.50;;;;;;5060476;28;20218;-76
2021/04/14 11:13:56;;;;;;;3.00;2.80;;;12.00;66.30;;;;;;5057530;28;20225;-76
2021/04/14 11:16:23;;;;;;;2.90;2.70;;;12.30;67.70;;;;;;5060443;28;20775;-75
2021/04/14 11:18:50;;;;;;;3.22;3.03;;;12.40;67.00;;;;;;5058981;28;20319;-75
2021/04/14 11:21:26;;;;;;;3.10;2.88;;;12.40;66.30;;;;;;5061103;28;20287;-76
2021/04/14 11:24:03;;;;;;;3.00;2.80;;;12.50;67.20;;;;;;5058750;28;20210;-76
2021/04/14 11:26:31;;;;;;;3.10;2.90;;;12.70;64.50;;;;;;5058156;28;20299;-76
2021/04/14 11:28:58;;;;;;;3.40;2.42;;;12.80;66.40;;;;;;5060934;28;20244;-75
2021/04/14 11:31:31;;;;;;;2.75;2.55;;;12.60;66.00;;;;;;5056295;28;20218;-75
2021/04/14 11:34:01;;;;;;;3.13;2.70;;;12.80;65.40;;;;;;5052597;28;20222;-76
2021/04/14 11:36:33;;;;;;;2.78;2.58;;;12.90;66.20;;;;;;5057651;28;20222;-77
2021/04/14 11:39:04;;;;;;;3.10;2.90;;;13.10;65.90;;;;;;5053073;28;20494;-77
2021/04/14 11:41:34;;;;;;;2.70;2.50;;;13.20;64.80;;;;;;5058901;28;20275;-75
2021/04/14 11:44:01;;;;;;;3.17;2.85;;;12.90;64.50;;;;;;5059809;28;20191;-76
2021/04/14 11:46:33;;;;;;;2.65;2.45;;;12.80;65.20;;;;;;5061989;28;20218;-76
2021/04/14 11:49:02;;;;;;;2.53;2.33;;;12.80;65.70;;;;;;5061580;28;20696;-77
2021/04/14 11:51:32;;;;;;;2.80;2.60;;;12.80;66.70;;;;;;5060906;28;20225;-76
2021/04/14 11:54:01;;;;;;;2.88;2.67;;;13.00;66.60;;;;;;5060313;28;20301;-75
2021/04/14 11:56:41;;;;;;;2.80;2.58;;;13.30;65.20;;;;;;5058376;28;20226;-76
2021/04/14 11:59:25;;;;;;;2.55;2.35;;;13.20;65.20;;;;;;5052962;28;20217;-77
2021/04/14 12:01:55;;;;;;;2.60;2.40;;;13.40;66.70;;;;;;5042704;28;20234;-77
2021/04/14 12:04:22;;;;;;;2.50;2.30;;;13.50;63.90;;;;;;5046188;28;20661;-76
2021/04/14 12:06:49;;;;;;;4.15;2.40;;;13.50;62.90;;;;;;5045320;28;21685;-76
2021/04/14 12:09:15;;;;;;;2.85;2.65;;;13.40;63.80;;;;;;5057499;28;20611;-77
2021/04/14 12:11:43;;;;;;;2.60;2.40;;;13.20;63.40;;;;;;5055368;28;20739;-76
2021/04/14 12:14:09;;;;;;;2.53;2.40;;;13.10;62.70;;;;;;5054235;28;20222;-77
2021/04/14 12:16:37;;;;;;;2.70;2.50;;;13.50;64.20;;;;;;5057582;28;20703;-77
2021/04/14 12:19:05;;;;;;;2.70;2.50;;;13.40;62.70;;;;;;5063044;28;20226;-77
2021/04/14 12:21:32;;;;;;;2.65;2.45;;;13.30;60.20;;;;;;5055591;28;20242;-76
2021/04/14 12:23:59;;;;;;;2.10;2.00;;;13.20;61.00;;;;;;5055049;28;20202;-76
2021/04/14 12:26:26;;;;;;;2.92;2.72;;;13.20;60.00;;;;;;5057037;28;20218;-76
2021/04/14 12:28:54;;;;;;;2.67;2.50;;;13.40;60.90;;;;;;5054059;28;20204;-76
2021/04/14 12:31:20;;;;;;;2.55;2.42;;;13.40;60.70;;;;;;5054348;28;20218;-76
2021/04/14 12:33:47;;;;;;;4.93;2.38;;;13.60;59.60;;;;;;5104005;23;20251;-69
2021/04/14 12:36:15;;;;;;;2.72;2.08;;;13.80;59.50;;;;;;5077261;28;20225;-68
2021/04/14 12:38:41;;;;;;;2.30;2.20;;;13.80;60.00;;;;;;5080867;28;20228;-68
2021/04/14 12:41:08;;;;;;;2.63;2.42;;;13.90;61.50;;;;;;5078172;28;20749;-68
2021/04/14 12:43:34;;;;;;;2.00;1.90;;;13.80;58.90;;;;;;5075459;28;20296;-68
2021/04/14 12:46:03;;;;;;;2.47;2.28;;;13.80;59.20;;;;;;5079048;28;20213;-68
2021/04/14 12:48:30;;;;;;;2.30;2.00;;;13.80;60.60;;;;;;5078383;28;20205;-68
2021/04/14 12:51:07;;;;;;;2.30;2.10;;;14.10;61.10;;;;;;5076302;28;20236;-68
2021/04/14 12:53:37;;;;;;;2.00;1.90;;;14.20;59.30;;;;;;5081493;28;20221;-68
2021/04/14 12:56:05;;;;;;;2.30;2.20;;;14.60;59.70;;;;;;5081760;28;20228;-68
2021/04/14 12:58:36;;;;;;;2.47;1.90;;;14.50;58.90;;;;;;5080890;28;20205;-68
2021/04/14 13:01:05;;;;;;;2.20;2.10;;;14.40;59.80;;;;;;5075639;28;20300;-71
2021/04/14 13:03:40;;;;;;;2.15;1.95;;;14.20;56.70;;;;;;5075185;28;20776;-69
2021/04/14 13:06:15;;;;;;;1.83;1.73;;;14.20;59.60;;;;;;5077608;28;20229;-68
2021/04/14 13:08:44;;;;;;;3.63;2.03;;;14.40;58.90;;;;;;5082524;28;20659;-69